createdAt,value
2023-05-23T00:00:58.331Z,-20601.00
2023-05-23T00:02:00.387Z,-20602.09
2023-05-23T00:03:03.032Z,-20601.00
2023-05-23T00:04:05.228Z,-20603.03
2023-05-23T00:05:07.516Z,-20602.28
2023-05-23T00:06:10.246Z,-20601.34
2023-05-23T00:07:12.267Z,-20602.47
2023-05-23T00:08:14.300Z,-20599.50
2023-05-23T00:09:16.687Z,-20600.25
2023-05-23T00:10:18.722Z,-20602.09
2023-05-23T00:11:24.090Z,-20597.66
2023-05-23T00:12:26.134Z,-20599.13
2023-05-23T00:13:28.202Z,-20598.97
2023-05-23T00:14:33.915Z,-20598.03
2023-05-23T00:15:39.102Z,-20599.13
2023-05-23T00:16:45.281Z,-20598.41
2023-05-23T00:17:47.619Z,-20599.69
2023-05-23T00:18:50.348Z,-20598.78
2023-05-23T00:19:52.900Z,-20598.41
2023-05-23T00:20:54.889Z,-20600.25
2023-05-23T00:21:56.989Z,-20601.00
2023-05-23T00:22:59.552Z,-20599.88
2023-05-23T00:24:02.594Z,-20602.09
2023-05-23T00:25:04.799Z,-20603.03
2023-05-23T00:26:06.827Z,-20600.63
2023-05-23T00:27:08.766Z,-20600.81
2023-05-23T00:28:10.772Z,-20601.72
2023-05-23T00:29:16.249Z,-20602.09
2023-05-23T00:30:18.366Z,-20603.19
2023-05-23T00:31:20.484Z,-20603.19
2023-05-23T00:32:22.524Z,-20603.19
2023-05-23T00:33:24.699Z,-20601.91
2023-05-23T00:34:26.666Z,-20602.84
2023-05-23T00:35:28.745Z,-20601.72
2023-05-23T00:36:30.998Z,-20599.69
2023-05-23T00:37:34.209Z,-20599.50
2023-05-23T00:38:36.194Z,-20600.44
2023-05-23T00:39:38.131Z,-20599.88
2023-05-23T00:40:40.226Z,-20600.06
2023-05-23T00:41:42.354Z,-20603.56
2023-05-23T00:42:44.572Z,-20602.84
2023-05-23T00:43:46.906Z,-20602.47
2023-05-23T00:44:49.176Z,-20603.38
2023-05-23T00:45:51.289Z,-20605.03
2023-05-23T00:46:55.406Z,-20605.03
2023-05-23T00:47:59.312Z,-20605.41
2023-05-23T00:49:01.492Z,-20603.03
2023-05-23T00:50:03.593Z,-20603.56
2023-05-23T00:51:05.782Z,-20603.56
2023-05-23T00:52:08.034Z,-20602.84
2023-05-23T00:53:10.606Z,-20605.78
2023-05-23T00:54:14.886Z,-20605.41
2023-05-23T00:55:16.979Z,-20608.00
2023-05-23T00:56:19.428Z,-20605.03
2023-05-23T00:57:22.615Z,-20605.78
2023-05-23T00:58:24.872Z,-20603.19
2023-05-23T00:59:27.248Z,-20603.94
2023-05-23T01:00:30.285Z,-20605.41
2023-05-23T01:01:33.571Z,-20605.59
2023-05-23T01:02:39.131Z,-20605.59
2023-05-23T01:03:41.276Z,-20605.41
2023-05-23T01:04:44.168Z,-20604.31
2023-05-23T01:05:46.314Z,-20602.84
2023-05-23T01:06:49.409Z,-20602.84
2023-05-23T01:07:51.819Z,-20602.09
2023-05-23T01:08:53.962Z,-20601.72
2023-05-23T01:09:55.909Z,-20599.50
2023-05-23T01:11:01.543Z,-20600.81
2023-05-23T01:12:12.151Z,-20601.72
2023-05-23T01:13:20.290Z,-20599.69
2023-05-23T01:14:27.210Z,-20598.41
2023-05-23T01:15:32.925Z,-20598.78
2023-05-23T01:16:49.120Z,-20599.88
2023-05-23T01:17:52.093Z,-20597.28
2023-05-23T01:18:59.181Z,-20595.06
2023-05-23T01:20:10.282Z,-20596.19
2023-05-23T01:21:17.491Z,-20593.97
2023-05-23T01:22:23.690Z,-20595.25
2023-05-23T01:23:31.519Z,-20592.50
2023-05-23T01:24:37.791Z,-20594.34
2023-05-23T01:25:49.792Z,-20595.63
2023-05-23T01:27:11.108Z,-20596.56
2023-05-23T01:28:16.894Z,-20592.69
2023-05-23T01:29:27.027Z,-20592.50
2023-05-23T01:30:32.060Z,-20588.63
2023-05-23T01:31:35.738Z,-20588.06
2023-05-23T01:32:39.976Z,-20587.16
2023-05-23T01:33:43.528Z,-20590.66
2023-05-23T01:34:46.109Z,-20589.00
2023-05-23T01:35:48.869Z,-20591.75
2023-05-23T01:36:54.016Z,-20591.41
2023-05-23T01:37:56.356Z,-20588.44
2023-05-23T01:38:59.222Z,-20588.63
2023-05-23T01:40:03.240Z,-20586.97
2023-05-23T01:41:05.390Z,-20586.59
2023-05-23T01:42:08.397Z,-20585.13
2023-05-23T01:43:10.859Z,-20584.38
2023-05-23T01:44:12.945Z,-20583.28
2023-05-23T01:45:16.101Z,-20585.47
2023-05-23T01:46:18.167Z,-20581.97
2023-05-23T01:47:21.243Z,-20583.28
2023-05-23T01:48:25.101Z,-20585.84
2023-05-23T01:49:27.649Z,-20587.34
2023-05-23T01:50:31.710Z,-20583.81
2023-05-23T01:51:34.282Z,-20579.56
2023-05-23T01:52:36.989Z,-20579.41
2023-05-23T01:53:39.058Z,-20579.94
2023-05-23T01:54:42.528Z,-20579.75
2023-05-23T01:55:45.626Z,-20578.09
2023-05-23T01:56:48.251Z,-20578.66
2023-05-23T01:57:51.610Z,-20582.53
2023-05-23T01:58:54.297Z,-20579.41
2023-05-23T01:59:56.884Z,-20578.84
2023-05-23T02:00:59.333Z,-20578.84
2023-05-23T02:02:01.607Z,-20578.47
2023-05-23T02:03:04.303Z,-20578.84
2023-05-23T02:04:07.805Z,-20578.28
2023-05-23T02:05:10.498Z,-20577.38
2023-05-23T02:06:12.550Z,-20579.22
2023-05-23T02:07:14.534Z,-20578.09
2023-05-23T02:08:16.539Z,-20578.66
2023-05-23T02:09:18.702Z,-20581.06
2023-05-23T02:10:21.038Z,-20579.56
2023-05-23T02:11:23.116Z,-20580.31
2023-05-23T02:12:25.420Z,-20579.41
2023-05-23T02:13:27.374Z,-20577.38
2023-05-23T02:14:29.389Z,-20579.03
2023-05-23T02:15:31.738Z,-20577.72
2023-05-23T02:16:36.741Z,-20576.25
2023-05-23T02:17:41.368Z,-20577.91
2023-05-23T02:18:46.229Z,-20575.88
2023-05-23T02:19:48.679Z,-20575.88
2023-05-23T02:20:50.840Z,-20576.63
2023-05-23T02:21:52.860Z,-20577.72
2023-05-23T02:22:54.862Z,-20577.56
2023-05-23T02:23:56.871Z,-20577.72
2023-05-23T02:24:58.848Z,-20576.63
2023-05-23T02:26:00.881Z,-20578.28
2023-05-23T02:27:03.389Z,-20578.28
2023-05-23T02:28:05.508Z,-20579.94
2023-05-23T02:29:07.534Z,-20581.06
2023-05-23T02:30:09.914Z,-20581.06
2023-05-23T02:31:11.994Z,-20579.94
2023-05-23T02:32:14.094Z,-20579.22
2023-05-23T02:33:16.794Z,-20581.63
2023-05-23T02:34:18.825Z,-20582.53
2023-05-23T02:35:20.985Z,-20580.31
2023-05-23T02:36:22.979Z,-20581.97
2023-05-23T02:37:25.080Z,-20581.78
2023-05-23T02:38:27.437Z,-20580.88
2023-05-23T02:39:29.483Z,-20581.06
2023-05-23T02:40:31.454Z,-20582.16
2023-05-23T02:41:33.446Z,-20581.06
2023-05-23T02:42:35.555Z,-20581.78
2023-05-23T02:43:38.042Z,-20582.53
2023-05-23T02:44:40.453Z,-20581.78
2023-05-23T02:45:42.670Z,-20583.47
2023-05-23T02:46:45.570Z,-20579.56
2023-05-23T02:47:47.724Z,-20579.22
2023-05-23T02:48:49.741Z,-20578.66
2023-05-23T02:49:51.820Z,-20580.31
2023-05-23T02:50:53.833Z,-20579.22
2023-05-23T02:51:55.847Z,-20579.94
2023-05-23T02:52:58.136Z,-20582.91
2023-05-23T02:54:00.152Z,-20581.06
2023-05-23T02:55:02.263Z,-20582.16
2023-05-23T02:56:08.545Z,-20578.84
2023-05-23T02:57:10.731Z,-20580.31
2023-05-23T02:58:15.014Z,-20580.50
2023-05-23T02:59:17.946Z,-20577.38
2023-05-23T03:00:20.173Z,-20576.44
2023-05-23T03:01:26.612Z,-20577.00
2023-05-23T03:02:28.610Z,-20575.50
2023-05-23T03:03:33.563Z,-20576.81
2023-05-23T03:04:38.125Z,-20578.28
2023-05-23T03:05:40.779Z,-20578.66
2023-05-23T03:06:44.373Z,-20574.78
2023-05-23T03:07:46.468Z,-20576.25
2023-05-23T03:08:48.521Z,-20577.19
2023-05-23T03:09:50.574Z,-20578.84
2023-05-23T03:10:53.217Z,-20578.28
2023-05-23T03:11:55.237Z,-20575.50
2023-05-23T03:12:57.547Z,-20576.63
2023-05-23T03:13:59.712Z,-20576.25
2023-05-23T03:15:01.766Z,-20575.50
2023-05-23T03:16:03.952Z,-20575.88
2023-05-23T03:17:06.099Z,-20577.00
2023-05-23T03:18:08.130Z,-20576.44
2023-05-23T03:19:10.239Z,-20575.69
2023-05-23T03:20:12.312Z,-20577.38
2023-05-23T03:21:14.338Z,-20577.19
2023-05-23T03:22:16.738Z,-20577.00
2023-05-23T03:23:18.908Z,-20576.63
2023-05-23T03:24:20.933Z,-20575.69
2023-05-23T03:25:22.988Z,-20573.13
2023-05-23T03:26:25.211Z,-20573.66
2023-05-23T03:27:27.235Z,-20574.03
2023-05-23T03:28:31.073Z,-20572.19
2023-05-23T03:29:33.101Z,-20570.72
2023-05-23T03:30:35.142Z,-20569.97
2023-05-23T03:31:37.458Z,-20570.16
2023-05-23T03:32:39.731Z,-20571.09
2023-05-23T03:33:41.906Z,-20567.41
2023-05-23T03:34:45.644Z,-20570.34
2023-05-23T03:35:47.673Z,-20565.19
2023-05-23T03:36:49.862Z,-20565.19
2023-05-23T03:37:51.903Z,-20564.81
2023-05-23T03:38:53.998Z,-20564.06
2023-05-23T03:39:56.018Z,-20563.69
2023-05-23T03:40:57.998Z,-20562.97
2023-05-23T03:42:00.193Z,-20562.22
2023-05-23T03:43:06.025Z,-20559.63
2023-05-23T03:44:09.795Z,-20557.63
2023-05-23T03:45:12.373Z,-20556.31
2023-05-23T03:46:14.481Z,-20556.69
2023-05-23T03:47:17.217Z,-20555.78
2023-05-23T03:48:20.367Z,-20555.94
2023-05-23T03:49:22.998Z,-20555.56
2023-05-23T03:50:26.507Z,-20554.84
2023-05-23T03:51:28.931Z,-20553.72
2023-05-23T03:52:31.087Z,-20554.28
2023-05-23T03:53:34.389Z,-20553.72
2023-05-23T03:54:37.941Z,-20553.00
2023-05-23T03:55:40.163Z,-20554.47
2023-05-23T03:56:42.447Z,-20554.09
2023-05-23T03:57:44.836Z,-20553.19
2023-05-23T03:58:46.946Z,-20550.41
2023-05-23T03:59:50.543Z,-20549.13
2023-05-23T04:00:53.223Z,-20547.84
2023-05-23T04:01:58.849Z,-20548.75
2023-05-23T04:03:01.068Z,-20550.59
2023-05-23T04:04:05.008Z,-20551.34
2023-05-23T04:05:10.283Z,-20550.22
2023-05-23T04:06:14.408Z,-20551.53
2023-05-23T04:07:19.112Z,-20550.78
2023-05-23T04:08:22.228Z,-20549.69
2023-05-23T04:09:26.058Z,-20548.94
2023-05-23T04:10:28.933Z,-20550.59
2023-05-23T04:11:31.298Z,-20548.19
2023-05-23T04:12:33.321Z,-20548.19
2023-05-23T04:13:35.641Z,-20547.84
2023-05-23T04:14:39.460Z,-20547.09
2023-05-23T04:15:42.938Z,-20548.94
2023-05-23T04:16:48.208Z,-20547.47
2023-05-23T04:17:51.490Z,-20545.81
2023-05-23T04:18:54.407Z,-20545.44
2023-05-23T04:19:56.704Z,-20542.84
2023-05-23T04:20:59.125Z,-20542.66
2023-05-23T04:22:01.206Z,-20542.66
2023-05-23T04:23:04.401Z,-20544.13
2023-05-23T04:24:09.270Z,-20544.50
2023-05-23T04:25:11.687Z,-20543.41
2023-05-23T04:26:20.525Z,-20543.78
2023-05-23T04:27:27.309Z,-20544.31
2023-05-23T04:28:29.628Z,-20544.13
2023-05-23T04:29:31.727Z,-20545.63
2023-05-23T04:30:34.634Z,-20544.13
2023-05-23T04:31:36.695Z,-20544.88
2023-05-23T04:32:39.093Z,-20544.88
2023-05-23T04:33:41.526Z,-20541.94
2023-05-23T04:34:44.301Z,-20541.94
2023-05-23T04:35:46.473Z,-20544.50
2023-05-23T04:36:49.428Z,-20543.41
2023-05-23T04:37:56.640Z,-20539.53
2023-05-23T04:39:00.184Z,-20541.00
2023-05-23T04:40:05.178Z,-20541.56
2023-05-23T04:41:28.236Z,-20542.47
2023-05-23T04:42:33.606Z,-20540.81
2023-05-23T04:43:42.887Z,-20541.94
2023-05-23T04:44:57.488Z,-20543.41
2023-05-23T04:46:18.951Z,-20543.22
2023-05-23T04:47:24.992Z,-20543.94
2023-05-23T04:48:37.091Z,-20541.56
2023-05-23T04:49:39.878Z,-20540.06
2023-05-23T04:50:43.677Z,-20540.06
2023-05-23T04:51:45.788Z,-20539.34
2023-05-23T04:53:02.479Z,-20539.34
2023-05-23T04:54:04.802Z,-20538.22
2023-05-23T04:55:08.590Z,-20538.59
2023-05-23T04:56:11.095Z,-20536.56
2023-05-23T04:57:14.182Z,-20537.69
2023-05-23T04:58:16.174Z,-20538.97
2023-05-23T04:59:18.262Z,-20535.09
2023-05-23T05:00:20.472Z,-20534.53
2023-05-23T05:01:25.938Z,-20534.91
2023-05-23T05:02:33.824Z,-20534.72
2023-05-23T05:03:36.258Z,-20535.47
2023-05-23T05:04:38.593Z,-20534.34
2023-05-23T05:05:41.088Z,-20531.97
2023-05-23T05:06:43.095Z,-20532.16
2023-05-23T05:07:45.557Z,-20531.22
2023-05-23T05:08:47.637Z,-20529.38
2023-05-23T05:09:50.062Z,-20530.09
2023-05-23T05:10:54.433Z,-20526.97
2023-05-23T05:11:56.444Z,-20526.22
2023-05-23T05:12:58.380Z,-20526.22
2023-05-23T05:14:03.235Z,-20524.94
2023-05-23T05:15:05.668Z,-20523.47
2023-05-23T05:16:07.806Z,-20525.31
2023-05-23T05:17:10.191Z,-20525.66
2023-05-23T05:18:36.386Z,-20526.97
2023-05-23T05:19:38.671Z,-20526.78
2023-05-23T05:20:41.818Z,-20527.16
2023-05-23T05:21:44.177Z,-20527.53
2023-05-23T05:22:46.711Z,-20526.06
2023-05-23T05:23:48.865Z,-20525.66
2023-05-23T05:24:52.647Z,-20525.66
2023-05-23T05:25:56.274Z,-20525.88
2023-05-23T05:26:58.366Z,-20524.94
2023-05-23T05:28:06.174Z,-20523.84
2023-05-23T05:29:13.254Z,-20521.63
2023-05-23T05:30:15.333Z,-20520.31
2023-05-23T05:31:27.902Z,-20515.53
2023-05-23T05:32:31.407Z,-20516.25
2023-05-23T05:33:36.442Z,-20514.97
2023-05-23T05:34:49.440Z,-20518.66
2023-05-23T05:35:53.047Z,-20519.41
2023-05-23T05:36:57.030Z,-20519.03
2023-05-23T05:38:00.825Z,-20520.31
2023-05-23T05:39:02.844Z,-20517.19
2023-05-23T05:40:07.373Z,-20513.88
2023-05-23T05:41:11.228Z,-20513.13
2023-05-23T05:42:22.419Z,-20512.03
2023-05-23T05:43:25.636Z,-20512.94
2023-05-23T05:44:27.927Z,-20512.03
2023-05-23T05:45:29.907Z,-20513.50
2023-05-23T05:46:32.251Z,-20513.31
2023-05-23T05:47:34.393Z,-20514.97
2023-05-23T05:48:36.741Z,-20514.03
2023-05-23T05:49:42.441Z,-20513.50
2023-05-23T05:50:45.585Z,-20514.22
2023-05-23T05:51:48.064Z,-20515.34
2023-05-23T05:52:50.191Z,-20516.81
2023-05-23T05:53:52.202Z,-20516.63
2023-05-23T05:54:54.309Z,-20516.81
2023-05-23T05:55:56.297Z,-20513.13
2023-05-23T05:56:58.626Z,-20511.47
2023-05-23T05:58:01.660Z,-20508.31
2023-05-23T05:59:09.113Z,-20512.38
2023-05-23T06:00:15.386Z,-20511.66
2023-05-23T06:01:20.376Z,-20508.31
2023-05-23T06:02:22.512Z,-20509.81
2023-05-23T06:03:24.771Z,-20508.88
2023-05-23T06:04:29.484Z,-20510.53
2023-05-23T06:05:32.732Z,-20511.47
2023-05-23T06:06:35.829Z,-20510.72
2023-05-23T06:07:40.925Z,-20509.81
2023-05-23T06:08:43.352Z,-20509.44
2023-05-23T06:09:49.858Z,-20510.72
2023-05-23T06:10:51.991Z,-20512.75
2023-05-23T06:11:53.990Z,-20513.13
2023-05-23T06:12:56.216Z,-20514.41
2023-05-23T06:13:58.185Z,-20514.97
2023-05-23T06:15:01.224Z,-20515.72
2023-05-23T06:16:03.365Z,-20511.66
2023-05-23T06:17:05.573Z,-20512.75
2023-05-23T06:18:07.588Z,-20511.66
2023-05-23T06:19:10.664Z,-20511.84
2023-05-23T06:20:14.250Z,-20508.16
2023-05-23T06:21:19.607Z,-20508.50
2023-05-23T06:22:24.728Z,-20507.59
2023-05-23T06:23:26.753Z,-20510.34
2023-05-23T06:24:28.792Z,-20510.53
2023-05-23T06:25:31.042Z,-20508.88
2023-05-23T06:26:33.555Z,-20510.34
2023-05-23T06:27:35.810Z,-20510.53
2023-05-23T06:28:39.772Z,-20511.28
2023-05-23T06:29:42.383Z,-20508.69
2023-05-23T06:30:44.492Z,-20510.16
2023-05-23T06:31:46.561Z,-20510.16
2023-05-23T06:32:48.778Z,-20511.66
2023-05-23T06:33:51.253Z,-20510.53
2023-05-23T06:34:53.222Z,-20508.88
2023-05-23T06:35:55.718Z,-20507.22
2023-05-23T06:36:57.687Z,-20508.16
2023-05-23T06:37:59.853Z,-20508.69
2023-05-23T06:39:01.852Z,-20508.88
2023-05-23T06:40:04.047Z,-20510.91
2023-05-23T06:41:07.238Z,-20509.06
2023-05-23T06:42:10.350Z,-20511.28
2023-05-23T06:43:30.739Z,-20508.31
2023-05-23T06:44:49.866Z,-20507.41
2023-05-23T06:45:54.095Z,-20508.50
2023-05-23T06:46:57.704Z,-20507.97
2023-05-23T06:48:01.310Z,-20507.59
2023-05-23T06:49:14.285Z,-20505.38
2023-05-23T06:50:21.489Z,-20504.44
2023-05-23T06:51:25.558Z,-20506.84
2023-05-23T06:52:27.916Z,-20507.59
2023-05-23T06:53:29.906Z,-20508.31
2023-05-23T06:54:31.991Z,-20506.13
2023-05-23T06:55:34.151Z,-20501.13
2023-05-23T06:56:36.403Z,-20502.25
2023-05-23T06:57:39.718Z,-20503.34
2023-05-23T06:58:41.821Z,-20501.69
2023-05-23T06:59:44.048Z,-20500.19
2023-05-23T07:00:46.456Z,-20500.38
2023-05-23T07:01:54.923Z,-20496.88
2023-05-23T07:03:01.387Z,-20495.41
2023-05-23T07:04:03.666Z,-20491.34
2023-05-23T07:05:06.046Z,-20488.03
2023-05-23T07:06:21.856Z,-20485.06
2023-05-23T07:07:23.938Z,-20487.28
2023-05-23T07:08:25.952Z,-20487.66
2023-05-23T07:09:33.516Z,-20485.63
2023-05-23T07:10:43.865Z,-20486.56
2023-05-23T07:12:01.343Z,-20487.28
2023-05-23T07:13:03.328Z,-20485.63
2023-05-23T07:14:07.628Z,-20486.19
2023-05-23T07:15:12.767Z,-20485.06
2023-05-23T07:16:24.371Z,-20482.13
2023-05-23T07:17:37.559Z,-20483.22
2023-05-23T07:18:39.658Z,-20483.78
2023-05-23T07:19:41.757Z,-20482.13
2023-05-23T07:20:43.845Z,-20481.19
2023-05-23T07:21:54.692Z,-20482.66
2023-05-23T07:22:57.438Z,-20482.13
2023-05-23T07:23:59.445Z,-20482.66
2023-05-23T07:25:02.821Z,-20483.41
2023-05-23T07:26:09.834Z,-20486.38
2023-05-23T07:27:26.980Z,-20485.81
2023-05-23T07:28:28.999Z,-20482.50
2023-05-23T07:29:32.252Z,-20483.22
2023-05-23T07:30:34.306Z,-20479.91
2023-05-23T07:31:36.467Z,-20480.25
2023-05-23T07:32:38.626Z,-20482.13
2023-05-23T07:33:42.391Z,-20481.75
2023-05-23T07:34:46.887Z,-20482.13
2023-05-23T07:35:48.943Z,-20481.19
2023-05-23T07:36:50.975Z,-20483.78
2023-05-23T07:37:54.054Z,-20485.63
2023-05-23T07:38:56.407Z,-20487.28
2023-05-23T07:39:58.420Z,-20485.81
2023-05-23T07:41:10.569Z,-20485.81
2023-05-23T07:42:13.815Z,-20486.19
2023-05-23T07:43:15.897Z,-20486.56
2023-05-23T07:44:18.850Z,-20487.66
2023-05-23T07:45:21.030Z,-20488.56
2023-05-23T07:46:23.338Z,-20486.72
2023-05-23T07:47:25.488Z,-20488.03
2023-05-23T07:48:27.737Z,-20485.25
2023-05-23T07:49:29.879Z,-20486.19
2023-05-23T07:50:31.924Z,-20488.41
2023-05-23T07:51:34.405Z,-20486.56
2023-05-23T07:52:36.373Z,-20485.25
2023-05-23T07:53:40.423Z,-20487.66
2023-05-23T07:54:46.214Z,-20482.50
2023-05-23T07:55:48.637Z,-20483.22
2023-05-23T07:56:52.218Z,-20481.75
2023-05-23T07:57:56.443Z,-20481.75
2023-05-23T07:59:00.165Z,-20481.94
2023-05-23T08:00:02.265Z,-20479.53
2023-05-23T08:01:05.800Z,-20479.91
2023-05-23T08:02:33.908Z,-20482.50
2023-05-23T08:03:37.506Z,-20479.91
2023-05-23T08:04:45.931Z,-20477.31
2023-05-23T08:05:48.140Z,-20478.06
2023-05-23T08:07:04.502Z,-20477.13
2023-05-23T08:08:33.797Z,-20480.63
2023-05-23T08:09:36.189Z,-20479.53
2023-05-23T08:10:40.172Z,-20481.00
2023-05-23T08:11:46.522Z,-20483.97
2023-05-23T08:12:48.599Z,-20482.50
2023-05-23T08:13:53.343Z,-20481.00
2023-05-23T08:15:13.155Z,-20483.41
2023-05-23T08:16:18.898Z,-20482.13
2023-05-23T08:17:24.547Z,-20483.59
2023-05-23T08:18:28.483Z,-20483.78
2023-05-23T08:19:30.675Z,-20479.16
2023-05-23T08:20:32.803Z,-20481.38
2023-05-23T08:21:36.380Z,-20482.50
2023-05-23T08:22:38.458Z,-20483.22
2023-05-23T08:23:40.993Z,-20482.31
2023-05-23T08:24:42.979Z,-20485.06
2023-05-23T08:25:45.022Z,-20485.81
2023-05-23T08:26:47.131Z,-20487.28
2023-05-23T08:27:50.388Z,-20486.91
2023-05-23T08:29:15.602Z,-20487.28
2023-05-23T08:30:18.268Z,-20489.69
2023-05-23T08:31:20.646Z,-20484.69
2023-05-23T08:32:22.816Z,-20487.66
2023-05-23T08:33:24.992Z,-20484.69
2023-05-23T08:34:29.726Z,-20485.06
2023-05-23T08:35:36.405Z,-20482.66
2023-05-23T08:36:43.098Z,-20485.06
2023-05-23T08:37:50.174Z,-20489.31
2023-05-23T08:38:52.532Z,-20493.19
2023-05-23T08:40:08.647Z,-20495.22
2023-05-23T08:41:21.501Z,-20497.25
2023-05-23T08:42:25.977Z,-20503.53
2023-05-23T08:43:28.699Z,-20509.44
2023-05-23T08:44:30.876Z,-20508.16
2023-05-23T08:45:35.994Z,-20509.25
2023-05-23T08:46:40.301Z,-20510.16
2023-05-23T08:47:43.338Z,-20503.91
2023-05-23T08:48:51.595Z,-20503.91
2023-05-23T08:49:55.261Z,-20503.34
2023-05-23T08:50:58.478Z,-20500.94
2023-05-23T08:52:03.399Z,-20502.06
2023-05-23T08:53:09.071Z,-20499.09
2023-05-23T08:54:15.435Z,-20500.94
2023-05-23T08:55:17.763Z,-20502.78
2023-05-23T08:56:20.062Z,-20506.13
2023-05-23T08:57:24.463Z,-20512.75
2023-05-23T08:58:32.120Z,-20514.59
2023-05-23T08:59:35.269Z,-20522.00
2023-05-23T09:00:37.371Z,-20524.19
2023-05-23T09:01:40.118Z,-20527.16
2023-05-23T09:02:45.197Z,-20527.53
2023-05-23T09:04:05.054Z,-20540.25
2023-05-23T09:05:15.950Z,-19896.13
2023-05-23T09:06:21.355Z,-17320.09
2023-05-23T09:07:23.691Z,-12477.13
2023-05-23T09:08:27.274Z,-1777.63
2023-05-23T09:09:34.041Z,12880.22
2023-05-23T09:10:37.901Z,35148.91
2023-05-23T09:11:41.560Z,62163.19
2023-05-23T09:12:45.446Z,78783.91
2023-05-23T09:13:49.829Z,93840.69
2023-05-23T09:14:53.152Z,127071.31
2023-05-23T09:15:58.142Z,145306.50
2023-05-23T09:17:03.859Z,148922.53
2023-05-23T09:18:06.687Z,148937.09
2023-05-23T09:19:15.925Z,148937.09
2023-05-23T09:20:25.313Z,148949.25
2023-05-23T09:21:32.938Z,148929.81
2023-05-23T09:22:50.152Z,148886.09
2023-05-23T09:23:53.459Z,148898.22
2023-05-23T09:24:56.376Z,148886.09
2023-05-23T09:26:02.101Z,148903.06
2023-05-23T09:27:07.492Z,148839.94
2023-05-23T09:28:09.642Z,148786.47
2023-05-23T09:29:13.530Z,148757.34
2023-05-23T09:30:18.789Z,148746.41
2023-05-23T09:31:26.209Z,148754.91
2023-05-23T09:32:28.275Z,148849.66
2023-05-23T09:33:37.513Z,148814.41
2023-05-23T09:34:43.133Z,148832.59
2023-05-23T09:35:46.279Z,148716.06
2023-05-23T09:36:48.575Z,148659.00
2023-05-23T09:37:52.508Z,148640.78
2023-05-23T09:38:54.548Z,148623.81
2023-05-23T09:39:57.193Z,148650.53
2023-05-23T09:40:59.624Z,148652.94
2023-05-23T09:42:01.688Z,148677.19
2023-05-23T09:43:04.788Z,148622.59
2023-05-23T09:44:08.387Z,148546.06
2023-05-23T09:45:10.860Z,148569.19
2023-05-23T09:46:13.135Z,148548.53
2023-05-23T09:47:18.199Z,148518.19
2023-05-23T09:48:20.394Z,148521.84
2023-05-23T09:49:22.498Z,148548.53
2023-05-23T09:50:26.328Z,148323.91
2023-05-23T09:51:29.240Z,142794.69
2023-05-23T09:52:40.547Z,147134.31
2023-05-23T09:53:42.602Z,142434.63
2023-05-23T09:54:44.624Z,141408.38
2023-05-23T09:55:47.010Z,136680.78
2023-05-23T09:56:50.847Z,138030.19
2023-05-23T09:57:54.651Z,129316.72
2023-05-23T09:58:57.224Z,133370.31
2023-05-23T10:00:01.183Z,146631.78
2023-05-23T10:01:03.865Z,148599.53
2023-05-23T10:02:07.222Z,148685.72
2023-05-23T10:03:13.910Z,148672.34
2023-05-23T10:04:19.724Z,148661.44
2023-05-23T10:05:30.713Z,148728.19
2023-05-23T10:06:41.983Z,148771.88
2023-05-23T10:07:44.111Z,148810.78
2023-05-23T10:08:49.375Z,148844.81
2023-05-23T10:09:58.775Z,148828.97
2023-05-23T10:11:06.801Z,148949.25
2023-05-23T10:12:36.815Z,149210.56
2023-05-23T10:13:41.640Z,149384.47
2023-05-23T10:14:45.513Z,149549.88
2023-05-23T10:15:49.921Z,149665.53
2023-05-23T10:16:52.161Z,149715.41
2023-05-23T10:18:08.236Z,149738.56
2023-05-23T10:19:18.667Z,149759.25
2023-05-23T10:20:24.961Z,149657.00
2023-05-23T10:21:33.207Z,149574.28
2023-05-23T10:22:38.620Z,149462.28
2023-05-23T10:23:42.250Z,149417.28
2023-05-23T10:24:45.329Z,149317.53
2023-05-23T10:25:48.371Z,149293.22
2023-05-23T10:26:50.691Z,149126.69
2023-05-23T10:27:59.560Z,149041.59
2023-05-23T10:29:02.859Z,148971.09
2023-05-23T10:30:05.838Z,148940.78
2023-05-23T10:31:08.151Z,148886.09
2023-05-23T10:32:10.435Z,148873.97
2023-05-23T10:33:12.600Z,148867.88
2023-05-23T10:34:33.461Z,148871.50
2023-05-23T10:35:38.371Z,148951.69
2023-05-23T10:36:55.691Z,149101.16
2023-05-23T10:38:06.850Z,149238.53
2023-05-23T10:39:13.300Z,149267.72
2023-05-23T10:40:31.683Z,149245.81
2023-05-23T10:41:36.572Z,149236.09
2023-05-23T10:42:44.210Z,149247.03
2023-05-23T10:43:55.200Z,149123.03
2023-05-23T10:45:15.608Z,149078.06
2023-05-23T10:46:19.861Z,149034.28
2023-05-23T10:47:31.027Z,149031.84
2023-05-23T10:48:41.538Z,148971.09
2023-05-23T10:49:44.712Z,149073.19
2023-05-23T10:50:47.458Z,149226.34
2023-05-23T10:51:51.461Z,149444.06
2023-05-23T10:52:53.588Z,149496.38
2023-05-23T10:53:55.709Z,149532.88
2023-05-23T10:54:58.519Z,149574.28
2023-05-23T10:56:00.630Z,149521.88
2023-05-23T10:57:03.907Z,149519.47
2023-05-23T10:58:15.584Z,149386.88
2023-05-23T10:59:24.021Z,149356.47
2023-05-23T11:00:26.029Z,149188.66
2023-05-23T11:01:28.150Z,149182.59
2023-05-23T11:02:30.453Z,149078.06
2023-05-23T11:03:35.740Z,149076.84
2023-05-23T11:04:37.905Z,149061.00
2023-05-23T11:05:47.445Z,149154.63
2023-05-23T11:06:50.953Z,149114.53
2023-05-23T11:08:13.698Z,149144.94
2023-05-23T11:09:19.413Z,149321.19
2023-05-23T11:10:21.647Z,149620.50
2023-05-23T11:11:23.629Z,149872.50
2023-05-23T11:12:42.232Z,150015.00
2023-05-23T11:13:53.147Z,150239.25
2023-05-23T11:14:55.984Z,150270.94
2023-05-23T11:15:58.221Z,150178.25
2023-05-23T11:17:01.357Z,150019.88
2023-05-23T11:18:06.491Z,149854.22
2023-05-23T11:19:21.979Z,149866.44
2023-05-23T11:20:27.254Z,149855.44
2023-05-23T11:21:29.363Z,149748.28
2023-05-23T11:22:31.869Z,149733.69
2023-05-23T11:23:41.836Z,149784.84
2023-05-23T11:24:53.408Z,149756.78
2023-05-23T11:25:55.521Z,149795.81
2023-05-23T11:27:01.251Z,149759.25
2023-05-23T11:28:06.227Z,149683.78
2023-05-23T11:29:09.293Z,149547.44
2023-05-23T11:30:16.280Z,149566.97
2023-05-23T11:31:18.851Z,149474.47
2023-05-23T11:32:21.163Z,149464.75
2023-05-23T11:33:23.360Z,149498.81
2023-05-23T11:34:26.125Z,149315.09
2023-05-23T11:35:30.546Z,149240.97
2023-05-23T11:36:32.711Z,149238.53
2023-05-23T11:37:35.127Z,149229.97
2023-05-23T11:38:37.454Z,149289.56
2023-05-23T11:39:40.514Z,149343.13
2023-05-23T11:40:43.809Z,149382.03
2023-05-23T11:41:50.368Z,149350.41
2023-05-23T11:42:54.149Z,149400.28
2023-05-23T11:43:56.486Z,149412.44
2023-05-23T11:44:58.538Z,149344.34
2023-05-23T11:46:07.999Z,149397.81
2023-05-23T11:47:10.126Z,149476.91
2023-05-23T11:48:13.045Z,149463.53
2023-05-23T11:49:15.138Z,149491.47
2023-05-23T11:50:17.247Z,149445.28
2023-05-23T11:51:21.243Z,149406.38
2023-05-23T11:52:23.355Z,149396.59
2023-05-23T11:53:27.294Z,149427.00
2023-05-23T11:54:29.298Z,149427.00
2023-05-23T11:55:31.392Z,149367.47
2023-05-23T11:56:38.869Z,149285.91
2023-05-23T11:57:41.187Z,149333.41
2023-05-23T11:58:45.161Z,149362.56
2023-05-23T11:59:47.221Z,149351.63
2023-05-23T12:00:49.242Z,149309.03
2023-05-23T12:01:52.022Z,149524.31
2023-05-23T12:02:54.287Z,149597.41
2023-05-23T12:03:56.457Z,149605.91
2023-05-23T12:04:58.501Z,149581.56
2023-05-23T12:06:01.930Z,149573.06
2023-05-23T12:07:07.620Z,149537.72
2023-05-23T12:08:11.141Z,149562.13
2023-05-23T12:09:13.201Z,149574.28
2023-05-23T12:10:21.770Z,149554.75
2023-05-23T12:11:25.220Z,149614.41
2023-05-23T12:12:27.633Z,149725.13
2023-05-23T12:13:30.202Z,149732.47
2023-05-23T12:14:34.071Z,149781.19